Vail, Washington
Current Conditions -  °F | °C
As of 11:04 AM on Saturday 20 Dec 2014 (Local Time) from KOLM Reporting Station
Moderate Rain Moderate Rain  
Wind Chill:   Ceiling: 800
Heat Index:   Visibility: 2mi
Dew Point:   Wind: 10mph
Humidity: 93%   Direction: 210°SSW
Pressure: 29.6"   Gusts: NA
Location:  46.8214°N, 122.662°W
Report Text: KOLM 201904Z 21009KT 2SM RA BR BKN008 OVC014 09/08 A2960 RMK AO2 P0003 T00890078
Loading
Personal Weather Stations






























Interactive Weather Map New forecast layout! Learn more

10-Day Weather Forecast

Advertisements
Track Severe Weather on mobile